Flight Track Log - Related Links

Times and Time Zones

All times are in EDT time to prevent confusion due to time zone crossing. See the CHQ6047 flight status page for this flight to view local times or setup timezone preferences in your user account.

Time Position Orientation Groundspeed Altitude Reporting Facility
EDT Latitude Longitude Course Direction KTS MPH feet Rate Location/Type
Wed 02:27:45 PM 40.7333 -73.8333 294° West 164 189 2,500  Level New York TRACON
Wed 02:28:45 PM 40.7000 -73.8500 201° Southwest 200 230 4,800 2,100 Climbing New York TRACON
Wed 02:29:45 PM 40.7333 -73.9167 303° West 286 329 6,700 2,150 Climbing New York TRACON
Wed 02:30:00 PM 40.8338 -74.4066 275° West  Level FlightAware Approximate
Wed 02:30:45 PM 40.8000 -73.9833 323° Northwest 307 353 9,100  Level New York TRACON
Wed 02:31:00 PM 40.8438 -74.5456 275° West  Level FlightAware Approximate
Wed 02:31:45 PM 40.8167 -74.1000 281° West 300 345 11,600  Level New York TRACON
Wed 02:32:00 PM 40.8530 -74.6844 282° West  Level FlightAware Approximate
Wed 02:32:45 PM 40.8167 -74.2000 270° West 317 365 13,900  Level New York TRACON
Wed 02:33:00 PM 40.8734 -74.8202 294° West  Level FlightAware Approximate
Wed 02:34:43 PM 40.8464 -74.4358 280° West 337 388 16,800  Level New York Center
Wed 02:35:43 PM 40.8592 -74.5572 278° West 363 418 17,600 1,091 Climbing New York Center
Wed 02:36:44 PM 40.8750 -74.7119 278° West 387 445 19,000 1,424 Climbing New York Center
Wed 02:37:41 PM 40.8847 -74.8525 275° West 394 453 20,400 1,744 Climbing New York Center
Wed 02:38:41 PM 40.8675 -74.9914 261° West 394 453 22,400 1,967 Climbing New York Center
Wed 02:39:43 PM 40.8458 -75.1272 258° West 383 441 24,400 2,100 Climbing New York Center
Wed 02:40:41 PM 40.8269 -75.2439 258° West 383 441 26,600 1,983 Climbing New York Center
Wed 02:41:41 PM 40.8056 -75.3686 257° West 372 428 28,300 1,636 Climbing New York Center
Wed 02:42:42 PM 40.7858 -75.4961 258° West 367 422 29,900 1,785 Climbing New York Center
Wed 02:43:42 PM 40.7639 -75.6233 257° West 367 422 31,900 1,850 Climbing New York Center
Wed 02:44:42 PM 40.7439 -75.7533 259° West 352 405 33,600 1,041 Climbing New York Center
Wed 02:45:43 PM 40.7239 -75.8806 258° West 352 405 34,000 202 Climbing New York Center
Wed 02:46:41 PM 40.6850 -76.0119 249° West 366 421 34,000  Level New York Center
Wed 02:47:41 PM 40.6433 -76.1508 248° West 395 455 34,000  Level New York Center
Wed 02:48:42 PM 40.6008 -76.3033 250° West 431 496 34,000  Level New York Center
Wed 02:49:43 PM 40.6092 -76.4764 274° West 450 518 34,000  Level New York Center
Wed 02:50:43 PM 40.6450 -76.6406 286° West 461 531 34,000  Level New York Center
Wed 02:51:41 PM 40.6761 -76.8103 284° West 467 537 34,000  Level New York Center
Wed 02:52:42 PM 40.7069 -76.9772 284° West 478 550 34,000  Level New York Center
Wed 02:53:42 PM 40.7400 -77.1419 285° West 478 550 34,000  Level New York Center
Wed 02:54:41 PM 40.7703 -77.3092 283° West 478 550 34,000  Level New York Center
Wed 02:55:41 PM 40.7975 -77.4600 283° West 478 550 34,000 -416 Level New York Center
Wed 02:57:34 PM 40.8567 -77.7967 283° West 482 555 32,800 -763 Descending Cleveland Center
Wed 02:58:34 PM 40.8878 -77.9656 284° West 482 555 31,800 -1,000 Descending Cleveland Center
Wed 02:59:34 PM 40.9186 -78.1403 283° West 487 560 30,800 -900 Descending Cleveland Center
Wed 03:00:34 PM 40.9514 -78.3122 284° West 487 560 30,000 -400 Descending Cleveland Center
Wed 03:01:34 PM 40.9819 -78.4900 283° West 487 560 30,000  Level Cleveland Center
Wed 03:02:34 PM 41.0122 -78.6653 283° West 487 560 30,000  Level Cleveland Center
Wed 03:03:34 PM 41.0397 -78.8350 282° West 487 560 30,000  Level Cleveland Center
Wed 03:04:34 PM 41.0672 -79.0050 282° West 482 555 30,000 -250 Level Cleveland Center
Wed 03:05:34 PM 41.0944 -79.1753 282° West 482 555 29,500 -800 Descending Cleveland Center
Wed 03:06:34 PM 41.1236 -79.3456 283° West 482 555 28,400 -1,350 Descending Cleveland Center
Wed 03:07:34 PM 41.1503 -79.5078 282° West 477 549 26,800 -1,650 Descending Cleveland Center
Wed 03:08:34 PM 41.1725 -79.6644 281° West 453 521 25,100 -1,400 Descending Cleveland Center
Wed 03:09:34 PM 41.1967 -79.8133 282° West 428 493 24,000 -550 Descending Cleveland Center
Wed 03:10:34 PM 41.2225 -79.9647 283° West 423 487 24,000  Level Cleveland Center
Wed 03:11:34 PM 41.2483 -80.1164 283° West 423 487 24,000 -200 Level Cleveland Center
Wed 03:12:34 PM 41.2694 -80.2656 281° West 423 487 23,600 -1,050 Descending Cleveland Center
Wed 03:13:34 PM 41.2886 -80.3981 281° West 423 487 21,900 -1,700 Descending Cleveland Center
Wed 03:14:34 PM 41.3075 -80.5278 281° West 390 449 20,200 -1,950 Descending Cleveland Center
Wed 03:15:34 PM 41.3261 -80.6494 282° West 358 412 18,000 -2,150 Descending Cleveland Center
Wed 03:16:34 PM 41.3617 -80.7603 293° West 332 382 15,900 -2,242 Descending Cleveland Center
Wed 03:17:13 PM 41.3928 -80.8433 297° West 317 365 14,300 -2,100 Descending Cleveland Center
Wed 03:17:34 PM 41.4031 -80.8628 305° West 314 361 13,800 -2,164 Descending Cleveland Center
Wed 03:18:14 PM 41.4342 -80.9458 297° West 314 361 12,100 -2,200 Descending Cleveland Center
Wed 03:18:34 PM 41.4425 -80.9653 300° West 314 361 11,600 -1,700 Descending Cleveland Center
Wed 03:19:14 PM 41.4692 -81.0458 294° West 302 348 10,400 -1,400 Descending Cleveland Center
Wed 03:19:34 PM 41.4794 -81.0653 305° West 302 348 10,200 -393 Descending Cleveland Center
Wed 03:20:15 PM 41.5083 -81.1461 296° West 293 337 10,000 -200 Descending Cleveland Center
Wed 03:20:34 PM 41.5103 -81.1683 277° West 302 348 10,000  Level Cleveland Center
Wed 03:21:16 PM 41.5014 -81.2542 262° West 300 345 10,000  Level Cleveland Center
Wed 03:21:34 PM 41.5033 -81.2847 275° West 284 327 10,000  Level Cleveland Center
Wed 03:22:16 PM 41.4986 -81.3622 265° West 291 335 10,000  Level Cleveland Center
Wed 03:22:34 PM 41.4986 -81.3925 270° West 289 333 10,000 -154 Level Cleveland Center
Wed 03:23:34 PM 41.5019 -81.4953 273° West 289 333 9,800 -551 Descending Cleveland Center
Wed 03:24:12 PM 41.4825 -81.5558 247° West 287 330 9,100 -1,000 Descending Cleveland Center
Wed 03:24:34 PM 41.4697 -81.5947 246° West 284 327 8,800 -986 Descending Cleveland Center
Wed 03:25:25 PM 41.4397 -81.6744 243° Southwest 287 330 7,900 -900 Descending Cleveland Center
Wed 03:26:34 PM 41.3828 -81.7592 228° Southwest 284 327 7,000 -893 Descending Cleveland Center
Wed 03:27:26 PM 41.3383 -81.8247 228° Southwest 261 300 6,100 -1,019 Descending Cleveland Center
Wed 03:28:20 PM 41.2917 -81.8903 227° Southwest 271 312 5,200 -1,252 Descending Cleveland Center
Wed 03:29:21 PM 41.2803 -81.9703 259° West 227 261 3,700 -1,180 Descending Cleveland Center
Wed 03:30:22 PM 41.3344 -81.9797 353° North 202 232 2,800 -885 Descending Cleveland Center

Login

Don't have an account? Register now (free) for customized features, flight alerts, and more!